createdAt,value
2019-03-26T00:01:20.254Z,103235.64
2019-03-26T00:04:12.356Z,103241.33
2019-03-26T00:07:04.779Z,103244.03
2019-03-26T00:09:57.147Z,103247.59
2019-03-26T00:12:49.526Z,103252.88
2019-03-26T00:15:42.135Z,103256.31
2019-03-26T00:18:34.508Z,103254.46
2019-03-26T00:21:26.861Z,103253.52
2019-03-26T00:24:19.243Z,103253.27
2019-03-26T00:27:11.741Z,103251.33
2019-03-26T00:30:04.099Z,103250.79
2019-03-26T00:32:56.463Z,103260.56
2019-03-26T00:35:48.818Z,103252.84
2019-03-26T00:38:41.243Z,103251.63
2019-03-26T00:41:34.057Z,103248.55
2019-03-26T00:44:26.616Z,103252.52
2019-03-26T00:47:18.832Z,103243.70
2019-03-26T00:50:11.234Z,103239.72
2019-03-26T00:53:03.721Z,103241.94
2019-03-26T00:55:56.137Z,103241.43
2019-03-26T00:58:48.261Z,103232.59
2019-03-26T01:01:41.119Z,103229.89
2019-03-26T01:04:33.725Z,103219.72
2019-03-26T01:07:26.926Z,103218.47
2019-03-26T01:10:28.935Z,103220.44
2019-03-26T01:13:21.354Z,103219.66
2019-03-26T01:16:13.707Z,103218.93
2019-03-26T01:19:06.572Z,103227.09
2019-03-26T01:21:59.039Z,103227.09
2019-03-26T01:24:51.388Z,103225.44
2019-03-26T01:27:43.481Z,103228.84
2019-03-26T01:30:35.678Z,103229.42
2019-03-26T01:33:28.185Z,103239.34
2019-03-26T01:36:20.472Z,103238.81
2019-03-26T01:39:13.390Z,103244.67
2019-03-26T01:42:06.470Z,103251.66
2019-03-26T01:44:59.186Z,103250.89
2019-03-26T01:47:51.607Z,103250.16
2019-03-26T01:50:44.646Z,103252.89
2019-03-26T01:53:37.660Z,103248.14
2019-03-26T01:56:30.049Z,103255.50
2019-03-26T01:59:23.179Z,103254.58
2019-03-26T02:02:15.428Z,103249.22
2019-03-26T02:05:08.182Z,103244.47
2019-03-26T02:08:00.792Z,103242.86
2019-03-26T02:10:53.238Z,103246.15
2019-03-26T02:13:46.355Z,103248.26
2019-03-26T02:16:38.698Z,103249.48
2019-03-26T02:19:30.812Z,103251.56
2019-03-26T02:22:23.287Z,103235.24
2019-03-26T02:25:15.716Z,103239.19
2019-03-26T02:28:07.902Z,103244.31
2019-03-26T02:31:00.150Z,103234.50
2019-03-26T02:33:52.909Z,103233.83
2019-03-26T02:36:45.381Z,103231.31
2019-03-26T02:39:38.006Z,103230.13
2019-03-26T02:42:31.162Z,103231.62
2019-03-26T02:45:23.364Z,103235.52
2019-03-26T02:48:15.750Z,103234.91
2019-03-26T02:51:08.210Z,103238.65
2019-03-26T02:54:00.314Z,103236.39
2019-03-26T02:56:52.607Z,103226.87
2019-03-26T02:59:45.027Z,103225.09
2019-03-26T03:02:37.165Z,103217.45
2019-03-26T03:05:35.871Z,103217.88
2019-03-26T03:08:23.250Z,103226.31
2019-03-26T03:11:15.429Z,103226.78
2019-03-26T03:14:08.016Z,103224.78
2019-03-26T03:17:00.879Z,103216.89
2019-03-26T03:19:53.740Z,103222.92
2019-03-26T03:22:46.291Z,103227.50
2019-03-26T03:25:38.691Z,103223.64
2019-03-26T03:28:31.798Z,103227.38
2019-03-26T03:31:23.894Z,103230.59
2019-03-26T03:34:16.154Z,103236.44
2019-03-26T03:37:08.271Z,103238.17
2019-03-26T03:40:00.481Z,103246.97
2019-03-26T03:42:52.653Z,103244.68
2019-03-26T03:45:45.024Z,103247.82
2019-03-26T03:48:38.416Z,103247.18
2019-03-26T03:51:31.503Z,103252.41
2019-03-26T03:54:25.183Z,103250.81
2019-03-26T03:57:19.492Z,103254.32
2019-03-26T04:00:31.011Z,103252.84
2019-03-26T04:03:23.252Z,103260.87
2019-03-26T04:06:15.571Z,103260.25
2019-03-26T04:09:08.594Z,103262.29
2019-03-26T04:12:01.003Z,103264.81
2019-03-26T04:14:53.199Z,103269.17
2019-03-26T04:17:45.660Z,103273.10
2019-03-26T04:20:38.056Z,103273.87
2019-03-26T04:23:30.212Z,103277.63
2019-03-26T04:26:22.700Z,103265.14
2019-03-26T04:29:16.472Z,103266.86
2019-03-26T04:32:08.970Z,103263.09
2019-03-26T04:35:01.339Z,103264.27
2019-03-26T04:37:53.745Z,103273.89
2019-03-26T04:40:46.099Z,103269.53
2019-03-26T04:43:38.209Z,103268.70
2019-03-26T04:46:31.171Z,103267.25
2019-03-26T04:49:23.434Z,103262.82
2019-03-26T04:52:16.694Z,103267.13
2019-03-26T04:55:09.119Z,103261.27
2019-03-26T04:58:01.704Z,103261.25
2019-03-26T05:00:55.223Z,103271.38
2019-03-26T05:03:47.860Z,103274.19
2019-03-26T05:06:40.384Z,103268.65
2019-03-26T05:09:32.590Z,103272.30
2019-03-26T05:12:25.462Z,103273.64
2019-03-26T05:15:18.082Z,103260.08
2019-03-26T05:18:10.968Z,103259.13
2019-03-26T05:21:03.200Z,103259.99
2019-03-26T05:23:56.207Z,103262.49
2019-03-26T05:26:48.675Z,103261.48
2019-03-26T05:29:41.074Z,103269.86
2019-03-26T05:32:33.446Z,103269.84
2019-03-26T05:35:25.584Z,103270.78
2019-03-26T05:38:17.815Z,103273.81
2019-03-26T05:41:10.686Z,103274.17
2019-03-26T05:44:03.969Z,103276.33
2019-03-26T05:46:56.406Z,103274.66
2019-03-26T05:49:49.819Z,103278.00
2019-03-26T05:52:42.001Z,103274.46
2019-03-26T05:55:34.567Z,103275.88
2019-03-26T05:58:26.839Z,103274.23
2019-03-26T06:01:19.050Z,103278.52
2019-03-26T06:04:11.650Z,103296.48
2019-03-26T06:07:05.393Z,103300.45
2019-03-26T06:09:59.826Z,103301.20
2019-03-26T06:12:52.666Z,103308.50
2019-03-26T06:15:45.021Z,103303.03
2019-03-26T06:18:37.505Z,103305.52
2019-03-26T06:21:30.107Z,103302.95
2019-03-26T06:24:22.640Z,103302.90
2019-03-26T06:27:14.818Z,103306.47
2019-03-26T06:30:08.576Z,103311.53
2019-03-26T06:33:00.648Z,103298.20
2019-03-26T06:35:52.800Z,103293.95
2019-03-26T06:38:46.397Z,103289.65
2019-03-26T06:41:38.657Z,103286.28
2019-03-26T06:44:32.609Z,103283.24
2019-03-26T06:47:25.256Z,103284.59
2019-03-26T06:50:18.874Z,103293.11
2019-03-26T06:53:11.358Z,103287.79
2019-03-26T06:56:04.019Z,103284.98
2019-03-26T06:58:56.330Z,103280.02
2019-03-26T07:01:48.787Z,103268.52
2019-03-26T07:04:47.482Z,103263.99
2019-03-26T07:07:40.447Z,103270.22
2019-03-26T07:10:33.036Z,103267.42
2019-03-26T07:13:25.443Z,103267.44
2019-03-26T07:16:18.628Z,103259.64
2019-03-26T07:19:11.266Z,103256.55
2019-03-26T07:22:03.958Z,103254.25
2019-03-26T07:24:56.739Z,103253.63
2019-03-26T07:27:48.992Z,103251.25
2019-03-26T07:30:44.028Z,103252.23
2019-03-26T07:33:37.074Z,103249.21
2019-03-26T07:36:29.290Z,103253.80
2019-03-26T07:39:21.623Z,103244.22
2019-03-26T07:42:14.050Z,103251.70
2019-03-26T07:45:07.878Z,103252.16
2019-03-26T07:48:01.129Z,103252.14
2019-03-26T07:50:53.311Z,103248.09
2019-03-26T07:53:45.482Z,103240.42
2019-03-26T07:56:37.871Z,103244.22
2019-03-26T07:59:30.084Z,103246.98
2019-03-26T08:02:22.569Z,103256.81
2019-03-26T08:05:14.822Z,103259.48
2019-03-26T08:08:07.554Z,103261.34
2019-03-26T08:11:00.176Z,103255.39
2019-03-26T08:13:52.845Z,103260.83
2019-03-26T08:16:45.611Z,103260.52
2019-03-26T08:19:37.859Z,103259.47
2019-03-26T08:22:30.747Z,103263.47
2019-03-26T08:25:23.379Z,103257.47
2019-03-26T08:28:15.840Z,103257.73
2019-03-26T08:31:08.266Z,103254.48
2019-03-26T08:34:00.603Z,103256.98
2019-03-26T08:36:52.799Z,103270.33
2019-03-26T08:39:45.248Z,103267.36
2019-03-26T08:42:38.545Z,103276.56
2019-03-26T08:45:31.017Z,103267.53
2019-03-26T08:48:23.273Z,103256.96
2019-03-26T08:51:15.386Z,103254.04
2019-03-26T08:54:07.512Z,103252.73
2019-03-26T08:56:59.723Z,103252.09
2019-03-26T08:59:52.107Z,103253.98
2019-03-26T09:02:44.284Z,103249.70
2019-03-26T09:05:36.488Z,103254.33
2019-03-26T09:08:28.768Z,103255.11
2019-03-26T09:11:21.727Z,103261.64
2019-03-26T09:14:13.951Z,103266.73
2019-03-26T09:17:07.216Z,103274.57
2019-03-26T09:19:59.731Z,103275.52
2019-03-26T09:22:52.010Z,103278.89
2019-03-26T09:25:44.451Z,103286.20
2019-03-26T09:28:37.992Z,103293.83
2019-03-26T09:31:30.430Z,103297.76
2019-03-26T09:34:22.649Z,103292.30
2019-03-26T09:37:15.693Z,103298.03
2019-03-26T09:40:09.156Z,103299.76
2019-03-26T09:43:01.369Z,103299.36
2019-03-26T09:45:54.524Z,103302.02
2019-03-26T09:48:46.776Z,103300.19
2019-03-26T09:51:39.037Z,103283.61
2019-03-26T09:54:31.501Z,103291.09
2019-03-26T09:57:23.876Z,103294.72
2019-03-26T10:00:16.386Z,103286.17
2019-03-26T10:03:08.529Z,103289.95
2019-03-26T10:06:01.244Z,103293.48
2019-03-26T10:08:53.467Z,103298.72
2019-03-26T10:11:47.700Z,103285.86
2019-03-26T10:14:40.135Z,103280.29
2019-03-26T10:17:32.671Z,103260.28
2019-03-26T10:20:25.170Z,103262.95
2019-03-26T10:23:17.975Z,103272.28
2019-03-26T10:26:10.560Z,103263.47
2019-03-26T10:29:18.669Z,103260.95
2019-03-26T10:31:57.427Z,103266.89
2019-03-26T10:34:49.645Z,103276.58
2019-03-26T10:37:42.224Z,103273.42
2019-03-26T10:40:35.870Z,103275.01
2019-03-26T10:43:28.363Z,103268.84
2019-03-26T10:46:20.836Z,103272.54
2019-03-26T10:49:13.222Z,103274.00
2019-03-26T10:52:05.467Z,103265.68
2019-03-26T10:54:58.105Z,103267.77
2019-03-26T10:57:50.264Z,103267.28
2019-03-26T11:00:42.437Z,103265.91
2019-03-26T11:03:35.432Z,103264.66
2019-03-26T11:06:27.803Z,103268.01
2019-03-26T11:09:26.732Z,103260.44
2019-03-26T11:12:14.302Z,103250.89
2019-03-26T11:15:07.664Z,103243.33
2019-03-26T11:17:59.985Z,103239.61
2019-03-26T11:21:02.279Z,103237.28
2019-03-26T11:23:45.937Z,103230.28
2019-03-26T11:26:38.381Z,103218.14
2019-03-26T11:29:31.629Z,103217.17
2019-03-26T11:32:24.182Z,103213.99
2019-03-26T11:35:17.048Z,103214.41
2019-03-26T11:38:09.209Z,103205.21
2019-03-26T11:41:01.371Z,103194.11
2019-03-26T11:43:54.353Z,103196.18
2019-03-26T11:46:46.801Z,103182.37
2019-03-26T11:49:39.265Z,103173.75
2019-03-26T11:52:31.457Z,103174.84
2019-03-26T11:55:23.930Z,103170.30
2019-03-26T11:58:29.499Z,103166.14
2019-03-26T12:01:10.059Z,103159.10
2019-03-26T12:04:02.785Z,103171.33
2019-03-26T12:06:55.452Z,103176.64
2019-03-26T12:09:48.696Z,103168.06
2019-03-26T12:12:41.141Z,103165.75
2019-03-26T12:15:33.635Z,103161.30
2019-03-26T12:18:25.890Z,103150.30
2019-03-26T12:21:18.420Z,103147.17
2019-03-26T12:24:10.629Z,103150.51
2019-03-26T12:27:03.448Z,103147.73
2019-03-26T12:29:56.118Z,103141.86
2019-03-26T12:32:48.307Z,103135.13
2019-03-26T12:35:41.083Z,103129.25
2019-03-26T12:38:33.526Z,103118.90
2019-03-26T12:41:25.757Z,103122.45
2019-03-26T12:44:19.975Z,103120.53
2019-03-26T12:47:12.232Z,103115.30
2019-03-26T12:50:04.856Z,103116.72
2019-03-26T12:52:56.948Z,103126.56
2019-03-26T12:55:49.114Z,103127.91
2019-03-26T12:58:41.282Z,103130.31
2019-03-26T13:01:33.506Z,103133.44
2019-03-26T13:04:26.343Z,103123.77
2019-03-26T13:07:18.797Z,103124.38
2019-03-26T13:10:14.053Z,103118.08
2019-03-26T13:13:06.469Z,103112.25
2019-03-26T13:15:59.000Z,103090.56
2019-03-26T13:18:51.958Z,103091.00
2019-03-26T13:21:44.224Z,103081.67
2019-03-26T13:24:37.672Z,103075.42
2019-03-26T13:27:29.851Z,103079.23
2019-03-26T13:30:23.026Z,103083.42
2019-03-26T13:33:15.562Z,103076.84
2019-03-26T13:36:08.195Z,103071.34
2019-03-26T13:39:00.400Z,103074.95
2019-03-26T13:41:54.365Z,103085.05
2019-03-26T13:44:46.631Z,103084.41
2019-03-26T13:47:38.964Z,103090.19
2019-03-26T13:50:31.072Z,103097.86
2019-03-26T13:53:23.487Z,103097.45
2019-03-26T13:56:15.765Z,103079.05
2019-03-26T13:59:08.319Z,103064.08
2019-03-26T14:02:02.224Z,103058.06
2019-03-26T14:04:54.532Z,103053.63
2019-03-26T14:07:46.842Z,103055.80
2019-03-26T14:10:41.180Z,103064.19
2019-03-26T14:13:33.295Z,103065.55
2019-03-26T14:16:25.773Z,103079.36
2019-03-26T14:19:18.271Z,103072.89
2019-03-26T14:22:10.519Z,103060.56
2019-03-26T14:25:02.750Z,103058.10
2019-03-26T14:27:55.173Z,103059.88
2019-03-26T14:30:48.353Z,103062.41
2019-03-26T14:33:40.597Z,103067.06
2019-03-26T14:36:33.548Z,103062.78
2019-03-26T14:39:25.643Z,103061.97
2019-03-26T14:42:18.449Z,103050.37
2019-03-26T14:45:11.185Z,103034.67
2019-03-26T14:48:03.609Z,103034.55
2019-03-26T14:50:55.726Z,103037.20
2019-03-26T14:53:47.833Z,103025.53
2019-03-26T14:56:40.971Z,103035.63
2019-03-26T14:59:33.223Z,103049.73
2019-03-26T15:02:25.831Z,103043.44
2019-03-26T15:05:18.113Z,103051.27
2019-03-26T15:08:10.806Z,103059.61
2019-03-26T15:11:08.360Z,103053.56
2019-03-26T15:13:58.005Z,103045.84
2019-03-26T15:16:50.195Z,103040.19
2019-03-26T15:19:42.668Z,103047.02
2019-03-26T15:22:35.257Z,103043.28
2019-03-26T15:25:27.413Z,103047.11
2019-03-26T15:28:20.864Z,103045.91
2019-03-26T15:31:13.233Z,103042.77
2019-03-26T15:34:05.518Z,103040.81
2019-03-26T15:36:57.942Z,103042.92
2019-03-26T15:39:50.378Z,103044.36
2019-03-26T15:42:42.920Z,103037.07
2019-03-26T15:45:35.817Z,103044.80
2019-03-26T15:48:28.229Z,103062.06
2019-03-26T15:51:20.659Z,103068.15
2019-03-26T15:54:13.034Z,103059.25
2019-03-26T15:57:05.234Z,103054.97
2019-03-26T15:59:57.412Z,103053.45
2019-03-26T16:02:49.661Z,103055.02
2019-03-26T16:05:42.324Z,103060.33
2019-03-26T16:08:36.133Z,103063.63
2019-03-26T16:11:35.797Z,103065.72
2019-03-26T16:14:22.653Z,103071.16
2019-03-26T16:17:14.916Z,103076.96
2019-03-26T16:20:08.144Z,103073.50
2019-03-26T16:23:00.815Z,103075.03
2019-03-26T16:25:53.013Z,103072.45
2019-03-26T16:28:45.396Z,103068.85
2019-03-26T16:31:37.933Z,103071.31
2019-03-26T16:34:30.087Z,103077.84
2019-03-26T16:37:22.544Z,103080.37
2019-03-26T16:40:15.053Z,103077.27
2019-03-26T16:43:07.308Z,103088.98
2019-03-26T16:45:59.499Z,103090.89
2019-03-26T16:48:51.766Z,103084.59
2019-03-26T16:51:43.946Z,103082.95
2019-03-26T16:54:36.379Z,103082.84
2019-03-26T16:57:29.400Z,103097.26
2019-03-26T17:00:33.539Z,103092.34
2019-03-26T17:03:31.081Z,103092.16
2019-03-26T17:06:19.387Z,103096.88
2019-03-26T17:09:11.617Z,103099.02
2019-03-26T17:12:04.513Z,103108.52
2019-03-26T17:14:58.829Z,103110.48
2019-03-26T17:17:51.515Z,103109.03
2019-03-26T17:20:44.135Z,103106.12
2019-03-26T17:23:40.510Z,103111.99
2019-03-26T17:26:32.754Z,103108.78
2019-03-26T17:29:24.940Z,103111.80
2019-03-26T17:32:17.202Z,103119.41
2019-03-26T17:35:10.114Z,103118.48
2019-03-26T17:38:02.320Z,103120.58
2019-03-26T17:40:54.475Z,103120.14
2019-03-26T17:43:46.656Z,103129.53
2019-03-26T17:46:38.974Z,103128.75
2019-03-26T17:49:31.323Z,103124.52
2019-03-26T17:52:23.514Z,103127.38
2019-03-26T17:55:15.830Z,103136.75
2019-03-26T17:58:08.335Z,103141.82
2019-03-26T18:01:00.426Z,103149.38
2019-03-26T18:03:52.883Z,103148.20
2019-03-26T18:06:45.113Z,103154.59
2019-03-26T18:09:37.502Z,103152.52
2019-03-26T18:12:31.433Z,103155.52
2019-03-26T18:15:24.059Z,103159.63
2019-03-26T18:18:16.722Z,103164.42
2019-03-26T18:21:09.307Z,103168.11
2019-03-26T18:24:01.907Z,103179.83
2019-03-26T18:26:54.166Z,103183.22
2019-03-26T18:29:46.408Z,103186.16
2019-03-26T18:32:38.681Z,103191.16
2019-03-26T18:35:31.065Z,103197.61
2019-03-26T18:38:23.322Z,103198.53
2019-03-26T18:41:16.304Z,103198.95
2019-03-26T18:44:08.726Z,103200.50
2019-03-26T18:47:01.221Z,103200.72
2019-03-26T18:49:53.446Z,103195.12
2019-03-26T18:52:45.844Z,103202.39
2019-03-26T18:55:37.977Z,103203.64
2019-03-26T18:58:30.123Z,103200.69
2019-03-26T19:01:22.368Z,103198.33
2019-03-26T19:04:14.500Z,103203.16
2019-03-26T19:07:07.467Z,103203.81
2019-03-26T19:10:00.050Z,103201.57
2019-03-26T19:12:57.017Z,103201.36
2019-03-26T19:15:47.133Z,103209.09
2019-03-26T19:18:39.439Z,103207.70
2019-03-26T19:21:31.759Z,103208.48
2019-03-26T19:24:24.280Z,103200.69
2019-03-26T19:27:16.573Z,103203.23
2019-03-26T19:30:09.147Z,103205.20
2019-03-26T19:33:01.366Z,103210.45
2019-03-26T19:35:54.586Z,103209.41
2019-03-26T19:38:47.599Z,103205.91
2019-03-26T19:41:39.983Z,103194.94
2019-03-26T19:44:32.129Z,103196.05
2019-03-26T19:47:24.455Z,103197.14
2019-03-26T19:50:17.510Z,103195.16
2019-03-26T19:53:10.576Z,103205.72
2019-03-26T19:56:03.721Z,103208.15
2019-03-26T19:58:56.371Z,103208.16
2019-03-26T20:01:48.557Z,103212.27
2019-03-26T20:04:41.019Z,103212.97
2019-03-26T20:07:33.147Z,103213.97
2019-03-26T20:10:25.502Z,103217.64
2019-03-26T20:13:24.263Z,103218.63
2019-03-26T20:16:11.956Z,103223.05
2019-03-26T20:19:04.598Z,103224.67
2019-03-26T20:21:56.952Z,103223.78
2019-03-26T20:24:49.521Z,103223.91
2019-03-26T20:27:42.130Z,103228.59
2019-03-26T20:30:34.721Z,103224.85
2019-03-26T20:33:27.214Z,103229.08
2019-03-26T20:36:20.384Z,103230.91
2019-03-26T20:39:12.851Z,103233.61
2019-03-26T20:42:05.455Z,103229.14
2019-03-26T20:44:57.913Z,103228.64
2019-03-26T20:47:50.058Z,103233.73
2019-03-26T20:50:42.291Z,103235.08
2019-03-26T20:53:35.968Z,103234.80
2019-03-26T20:56:29.211Z,103228.88
2019-03-26T20:59:21.742Z,103228.85
2019-03-26T21:02:13.973Z,103224.88
2019-03-26T21:05:07.764Z,103226.73
2019-03-26T21:08:00.327Z,103222.58
2019-03-26T21:10:52.428Z,103227.92
2019-03-26T21:13:50.760Z,103223.41
2019-03-26T21:16:38.745Z,103225.67
2019-03-26T21:19:31.388Z,103225.63
2019-03-26T21:22:23.893Z,103226.73
2019-03-26T21:25:16.396Z,103226.53
2019-03-26T21:28:08.718Z,103219.80
2019-03-26T21:31:01.200Z,103219.40
2019-03-26T21:33:54.044Z,103220.13
2019-03-26T21:36:46.192Z,103224.62
2019-03-26T21:39:38.612Z,103225.06
2019-03-26T21:42:31.080Z,103223.88
2019-03-26T21:45:35.855Z,103214.13
2019-03-26T21:48:28.136Z,103210.95
2019-03-26T21:51:21.067Z,103212.88
2019-03-26T21:54:13.308Z,103220.86
2019-03-26T21:57:05.509Z,103224.51
2019-03-26T21:59:57.771Z,103229.38
2019-03-26T22:02:51.184Z,103235.09
2019-03-26T22:05:43.995Z,103230.48
2019-03-26T22:08:36.177Z,103234.30
2019-03-26T22:11:28.721Z,103227.06
2019-03-26T22:14:20.840Z,103230.97
2019-03-26T22:17:13.016Z,103225.80
2019-03-26T22:20:05.414Z,103223.73
2019-03-26T22:22:57.866Z,103221.52
2019-03-26T22:25:50.521Z,103231.95
2019-03-26T22:28:42.822Z,103233.42
2019-03-26T22:31:35.718Z,103234.20
2019-03-26T22:34:28.614Z,103234.52
2019-03-26T22:37:20.879Z,103230.90
2019-03-26T22:40:13.556Z,103227.00
2019-03-26T22:43:05.938Z,103228.51
2019-03-26T22:45:58.707Z,103230.58
2019-03-26T22:48:51.079Z,103226.45
2019-03-26T22:51:43.612Z,103226.95
2019-03-26T22:54:37.048Z,103232.93
2019-03-26T22:57:29.202Z,103233.55
2019-03-26T23:00:22.483Z,103238.31
2019-03-26T23:03:16.225Z,103237.06
2019-03-26T23:06:08.695Z,103241.88
2019-03-26T23:09:00.865Z,103241.13
2019-03-26T23:11:55.077Z,103241.55
2019-03-26T23:14:47.690Z,103241.19
2019-03-26T23:17:40.530Z,103241.60
2019-03-26T23:20:33.190Z,103242.20
2019-03-26T23:23:25.377Z,103247.59
2019-03-26T23:26:17.625Z,103248.40
2019-03-26T23:29:10.531Z,103247.95
2019-03-26T23:32:02.862Z,103244.50
2019-03-26T23:34:55.430Z,103246.41
2019-03-26T23:37:49.274Z,103253.58
2019-03-26T23:40:42.143Z,103250.66
2019-03-26T23:43:34.564Z,103246.44
2019-03-26T23:46:26.975Z,103246.76
2019-03-26T23:49:20.335Z,103246.83
2019-03-26T23:52:13.534Z,103249.27
2019-03-26T23:55:06.410Z,103253.16
2019-03-26T23:57:58.944Z,103243.70
